sensor_id;sensor_type;location;lat;lon;timestamp;P1;durP1;ratioP1;P2;durP2;ratioP2
19406;SDS011;9839;53.364;-1.204;2023-02-08T00:00:51;33.90;;;14.03;;
19406;SDS011;9839;53.364;-1.204;2023-02-08T00:03:17;28.73;;;12.77;;
19406;SDS011;9839;53.364;-1.204;2023-02-08T00:05:43;33.00;;;13.90;;
19406;SDS011;9839;53.364;-1.204;2023-02-08T00:08:15;34.07;;;13.83;;
19406;SDS011;9839;53.364;-1.204;2023-02-08T00:10:43;40.43;;;15.77;;
19406;SDS011;9839;53.364;-1.204;2023-02-08T00:13:09;28.40;;;12.73;;
19406;SDS011;9839;53.364;-1.204;2023-02-08T00:15:39;22.77;;;12.23;;
19406;SDS011;9839;53.364;-1.204;2023-02-08T00:18:09;32.43;;;13.60;;
19406;SDS011;9839;53.364;-1.204;2023-02-08T00:20:40;35.73;;;16.47;;
19406;SDS011;9839;53.364;-1.204;2023-02-08T00:23:09;39.50;;;15.00;;
19406;SDS011;9839;53.364;-1.204;2023-02-08T00:25:39;36.70;;;13.67;;
19406;SDS011;9839;53.364;-1.204;2023-02-08T00:28:15;47.03;;;19.50;;
19406;SDS011;9839;53.364;-1.204;2023-02-08T00:30:47;48.90;;;19.43;;
19406;SDS011;9839;53.364;-1.204;2023-02-08T00:33:13;54.97;;;19.77;;
19406;SDS011;9839;53.364;-1.204;2023-02-08T00:35:39;62.00;;;21.90;;
19406;SDS011;9839;53.364;-1.204;2023-02-08T00:38:07;56.87;;;21.43;;
19406;SDS011;9839;53.364;-1.204;2023-02-08T00:40:36;53.00;;;21.67;;
19406;SDS011;9839;53.364;-1.204;2023-02-08T00:43:09;53.50;;;21.07;;
19406;SDS011;9839;53.364;-1.204;2023-02-08T00:45:35;51.53;;;19.33;;
19406;SDS011;9839;53.364;-1.204;2023-02-08T00:48:01;50.60;;;18.27;;
19406;SDS011;9839;53.364;-1.204;2023-02-08T00:50:30;52.87;;;20.37;;
19406;SDS011;9839;53.364;-1.204;2023-02-08T00:52:57;49.13;;;19.10;;
19406;SDS011;9839;53.364;-1.204;2023-02-08T00:55:26;48.67;;;17.97;;
19406;SDS011;9839;53.364;-1.204;2023-02-08T00:57:54;42.33;;;17.37;;
19406;SDS011;9839;53.364;-1.204;2023-02-08T01:00:20;42.67;;;17.77;;
19406;SDS011;9839;53.364;-1.204;2023-02-08T01:02:46;44.87;;;18.23;;
19406;SDS011;9839;53.364;-1.204;2023-02-08T01:05:14;51.43;;;18.67;;
19406;SDS011;9839;53.364;-1.204;2023-02-08T01:07:42;47.67;;;16.50;;
19406;SDS011;9839;53.364;-1.204;2023-02-08T01:10:08;47.20;;;17.13;;
19406;SDS011;9839;53.364;-1.204;2023-02-08T01:12:36;49.13;;;17.57;;
19406;SDS011;9839;53.364;-1.204;2023-02-08T01:15:03;44.37;;;17.70;;
19406;SDS011;9839;53.364;-1.204;2023-02-08T01:17:36;45.03;;;18.93;;
19406;SDS011;9839;53.364;-1.204;2023-02-08T01:20:02;44.97;;;18.23;;
19406;SDS011;9839;53.364;-1.204;2023-02-08T01:22:31;41.30;;;18.17;;
19406;SDS011;9839;53.364;-1.204;2023-02-08T01:24:57;40.10;;;18.43;;
19406;SDS011;9839;53.364;-1.204;2023-02-08T01:27:25;42.63;;;16.17;;
19406;SDS011;9839;53.364;-1.204;2023-02-08T01:29:53;43.13;;;17.70;;
19406;SDS011;9839;53.364;-1.204;2023-02-08T01:32:21;37.23;;;17.00;;
19406;SDS011;9839;53.364;-1.204;2023-02-08T01:34:55;41.37;;;17.57;;
19406;SDS011;9839;53.364;-1.204;2023-02-08T01:37:26;38.93;;;17.67;;
19406;SDS011;9839;53.364;-1.204;2023-02-08T01:39:57;40.77;;;16.67;;
19406;SDS011;9839;53.364;-1.204;2023-02-08T01:42:23;39.73;;;16.33;;
19406;SDS011;9839;53.364;-1.204;2023-02-08T01:47:39;40.03;;;16.87;;
19406;SDS011;9839;53.364;-1.204;2023-02-08T01:50:06;35.70;;;16.30;;
19406;SDS011;9839;53.364;-1.204;2023-02-08T01:52:32;40.97;;;16.10;;
19406;SDS011;9839;53.364;-1.204;2023-02-08T01:55:05;28.73;;;14.07;;
19406;SDS011;9839;53.364;-1.204;2023-02-08T01:57:43;39.90;;;15.63;;
19406;SDS011;9839;53.364;-1.204;2023-02-08T02:00:15;33.67;;;15.97;;
19406;SDS011;9839;53.364;-1.204;2023-02-08T02:02:45;37.40;;;15.67;;
19406;SDS011;9839;53.364;-1.204;2023-02-08T02:05:13;39.97;;;15.27;;
19406;SDS011;9839;53.364;-1.204;2023-02-08T02:07:43;37.77;;;16.83;;
19406;SDS011;9839;53.364;-1.204;2023-02-08T02:10:18;35.50;;;14.83;;
19406;SDS011;9839;53.364;-1.204;2023-02-08T02:12:51;33.53;;;14.90;;
19406;SDS011;9839;53.364;-1.204;2023-02-08T02:15:19;40.43;;;14.70;;
19406;SDS011;9839;53.364;-1.204;2023-02-08T02:17:45;36.33;;;14.87;;
19406;SDS011;9839;53.364;-1.204;2023-02-08T02:20:21;39.30;;;16.00;;
19406;SDS011;9839;53.364;-1.204;2023-02-08T02:25:40;35.40;;;13.13;;
19406;SDS011;9839;53.364;-1.204;2023-02-08T02:28:29;35.17;;;15.57;;
19406;SDS011;9839;53.364;-1.204;2023-02-08T02:31:46;45.20;;;15.33;;
19406;SDS011;9839;53.364;-1.204;2023-02-08T02:37:52;51.07;;;15.50;;
19406;SDS011;9839;53.364;-1.204;2023-02-08T02:41:18;34.23;;;15.20;;
19406;SDS011;9839;53.364;-1.204;2023-02-08T02:44:25;39.47;;;13.80;;
19406;SDS011;9839;53.364;-1.204;2023-02-08T02:47:11;32.27;;;13.83;;
19406;SDS011;9839;53.364;-1.204;2023-02-08T02:50:06;32.67;;;15.30;;
19406;SDS011;9839;53.364;-1.204;2023-02-08T02:55:48;22.47;;;12.07;;
19406;SDS011;9839;53.364;-1.204;2023-02-08T02:58:44;44.30;;;16.70;;
19406;SDS011;9839;53.364;-1.204;2023-02-08T03:01:12;32.03;;;14.30;;
19406;SDS011;9839;53.364;-1.204;2023-02-08T03:03:49;34.23;;;14.77;;
19406;SDS011;9839;53.364;-1.204;2023-02-08T03:09:06;27.67;;;12.70;;
19406;SDS011;9839;53.364;-1.204;2023-02-08T03:12:03;26.20;;;11.90;;
19406;SDS011;9839;53.364;-1.204;2023-02-08T03:20:35;39.27;;;15.53;;
19406;SDS011;9839;53.364;-1.204;2023-02-08T03:23:08;40.93;;;15.83;;
19406;SDS011;9839;53.364;-1.204;2023-02-08T03:25:48;39.37;;;15.63;;
19406;SDS011;9839;53.364;-1.204;2023-02-08T03:28:25;31.77;;;14.17;;
19406;SDS011;9839;53.364;-1.204;2023-02-08T03:31:14;41.53;;;16.13;;
19406;SDS011;9839;53.364;-1.204;2023-02-08T03:36:54;37.27;;;15.40;;
19406;SDS011;9839;53.364;-1.204;2023-02-08T03:39:53;30.60;;;15.47;;
19406;SDS011;9839;53.364;-1.204;2023-02-08T03:42:28;40.70;;;15.90;;
19406;SDS011;9839;53.364;-1.204;2023-02-08T03:45:00;35.10;;;15.70;;
19406;SDS011;9839;53.364;-1.204;2023-02-08T03:47:35;44.67;;;16.93;;
19406;SDS011;9839;53.364;-1.204;2023-02-08T03:50:08;33.90;;;16.00;;
19406;SDS011;9839;53.364;-1.204;2023-02-08T03:52:41;38.67;;;14.87;;
19406;SDS011;9839;53.364;-1.204;2023-02-08T03:55:11;37.00;;;15.80;;
19406;SDS011;9839;53.364;-1.204;2023-02-08T04:00:31;34.13;;;14.97;;
19406;SDS011;9839;53.364;-1.204;2023-02-08T04:03:12;36.13;;;14.37;;
19406;SDS011;9839;53.364;-1.204;2023-02-08T04:05:46;35.03;;;14.97;;
19406;SDS011;9839;53.364;-1.204;2023-02-08T04:08:19;43.17;;;14.53;;
19406;SDS011;9839;53.364;-1.204;2023-02-08T04:10:49;39.63;;;15.87;;
19406;SDS011;9839;53.364;-1.204;2023-02-08T04:13:17;44.17;;;16.50;;
19406;SDS011;9839;53.364;-1.204;2023-02-08T04:15:50;39.23;;;17.07;;
19406;SDS011;9839;53.364;-1.204;2023-02-08T04:18:19;37.60;;;17.77;;
19406;SDS011;9839;53.364;-1.204;2023-02-08T04:20:44;37.87;;;16.63;;
19406;SDS011;9839;53.364;-1.204;2023-02-08T04:23:13;42.83;;;17.47;;
19406;SDS011;9839;53.364;-1.204;2023-02-08T04:25:41;39.37;;;15.93;;
19406;SDS011;9839;53.364;-1.204;2023-02-08T04:28:08;43.50;;;17.27;;
19406;SDS011;9839;53.364;-1.204;2023-02-08T04:30:34;46.60;;;18.00;;
19406;SDS011;9839;53.364;-1.204;2023-02-08T04:33:03;48.07;;;17.60;;
19406;SDS011;9839;53.364;-1.204;2023-02-08T04:35:31;42.83;;;17.53;;
19406;SDS011;9839;53.364;-1.204;2023-02-08T04:37:57;48.93;;;19.20;;
19406;SDS011;9839;53.364;-1.204;2023-02-08T04:40:23;40.50;;;16.73;;
19406;SDS011;9839;53.364;-1.204;2023-02-08T04:42:49;47.07;;;18.03;;
19406;SDS011;9839;53.364;-1.204;2023-02-08T04:45:17;47.30;;;18.63;;
19406;SDS011;9839;53.364;-1.204;2023-02-08T04:47:46;41.87;;;18.97;;
19406;SDS011;9839;53.364;-1.204;2023-02-08T04:50:12;45.03;;;18.73;;
19406;SDS011;9839;53.364;-1.204;2023-02-08T04:52:46;43.53;;;16.70;;
19406;SDS011;9839;53.364;-1.204;2023-02-08T04:55:15;44.00;;;16.97;;
19406;SDS011;9839;53.364;-1.204;2023-02-08T04:57:40;42.47;;;17.10;;
19406;SDS011;9839;53.364;-1.204;2023-02-08T05:00:10;46.90;;;16.40;;
19406;SDS011;9839;53.364;-1.204;2023-02-08T05:02:38;48.77;;;17.33;;
19406;SDS011;9839;53.364;-1.204;2023-02-08T05:05:10;47.10;;;17.57;;
19406;SDS011;9839;53.364;-1.204;2023-02-08T05:07:38;43.80;;;17.80;;
19406;SDS011;9839;53.364;-1.204;2023-02-08T05:10:07;54.07;;;16.93;;
19406;SDS011;9839;53.364;-1.204;2023-02-08T05:12:35;52.40;;;17.70;;
19406;SDS011;9839;53.364;-1.204;2023-02-08T05:15:01;40.37;;;16.73;;
19406;SDS011;9839;53.364;-1.204;2023-02-08T05:17:27;48.67;;;17.03;;
19406;SDS011;9839;53.364;-1.204;2023-02-08T05:20:03;42.10;;;16.47;;
19406;SDS011;9839;53.364;-1.204;2023-02-08T05:22:30;42.13;;;16.70;;
19406;SDS011;9839;53.364;-1.204;2023-02-08T05:24:59;42.93;;;16.40;;
19406;SDS011;9839;53.364;-1.204;2023-02-08T05:27:27;39.17;;;15.90;;
19406;SDS011;9839;53.364;-1.204;2023-02-08T05:29:56;44.83;;;15.87;;
19406;SDS011;9839;53.364;-1.204;2023-02-08T05:32:24;41.97;;;14.73;;
19406;SDS011;9839;53.364;-1.204;2023-02-08T05:34:53;46.17;;;15.37;;
19406;SDS011;9839;53.364;-1.204;2023-02-08T05:37:19;36.67;;;14.80;;
19406;SDS011;9839;53.364;-1.204;2023-02-08T05:39:45;41.10;;;14.30;;
19406;SDS011;9839;53.364;-1.204;2023-02-08T05:42:11;37.93;;;14.80;;
19406;SDS011;9839;53.364;-1.204;2023-02-08T05:44:40;47.27;;;15.87;;
19406;SDS011;9839;53.364;-1.204;2023-02-08T05:47:08;48.23;;;16.20;;
19406;SDS011;9839;53.364;-1.204;2023-02-08T05:49:37;34.10;;;14.73;;
19406;SDS011;9839;53.364;-1.204;2023-02-08T05:52:06;44.40;;;15.73;;
19406;SDS011;9839;53.364;-1.204;2023-02-08T05:54:32;39.60;;;14.63;;
19406;SDS011;9839;53.364;-1.204;2023-02-08T05:57:05;46.67;;;17.23;;
19406;SDS011;9839;53.364;-1.204;2023-02-08T05:59:34;38.70;;;15.83;;
19406;SDS011;9839;53.364;-1.204;2023-02-08T06:02:02;53.47;;;17.00;;
19406;SDS011;9839;53.364;-1.204;2023-02-08T06:04:30;50.77;;;16.50;;
19406;SDS011;9839;53.364;-1.204;2023-02-08T06:06:59;40.33;;;16.30;;
19406;SDS011;9839;53.364;-1.204;2023-02-08T06:09:28;51.30;;;17.40;;
19406;SDS011;9839;53.364;-1.204;2023-02-08T06:11:56;53.23;;;18.27;;
19406;SDS011;9839;53.364;-1.204;2023-02-08T06:14:28;45.93;;;19.00;;
19406;SDS011;9839;53.364;-1.204;2023-02-08T06:16:56;48.27;;;18.63;;
19406;SDS011;9839;53.364;-1.204;2023-02-08T06:19:25;45.43;;;18.47;;
19406;SDS011;9839;53.364;-1.204;2023-02-08T06:21:51;49.33;;;18.93;;
19406;SDS011;9839;53.364;-1.204;2023-02-08T06:24:16;48.57;;;19.73;;
19406;SDS011;9839;53.364;-1.204;2023-02-08T06:26:42;40.87;;;18.20;;
19406;SDS011;9839;53.364;-1.204;2023-02-08T06:29:14;49.80;;;19.70;;
19406;SDS011;9839;53.364;-1.204;2023-02-08T06:31:40;46.73;;;17.83;;
19406;SDS011;9839;53.364;-1.204;2023-02-08T06:34:06;45.93;;;19.20;;
19406;SDS011;9839;53.364;-1.204;2023-02-08T06:36:37;41.80;;;19.43;;
19406;SDS011;9839;53.364;-1.204;2023-02-08T06:39:08;46.23;;;19.07;;
19406;SDS011;9839;53.364;-1.204;2023-02-08T06:41:34;44.60;;;19.67;;
19406;SDS011;9839;53.364;-1.204;2023-02-08T06:44:00;48.33;;;18.47;;
19406;SDS011;9839;53.364;-1.204;2023-02-08T06:46:26;53.23;;;19.43;;
19406;SDS011;9839;53.364;-1.204;2023-02-08T06:48:52;49.77;;;20.60;;
19406;SDS011;9839;53.364;-1.204;2023-02-08T06:51:22;42.00;;;19.23;;
19406;SDS011;9839;53.364;-1.204;2023-02-08T06:53:52;47.10;;;19.63;;
19406;SDS011;9839;53.364;-1.204;2023-02-08T06:56:24;51.53;;;19.50;;
19406;SDS011;9839;53.364;-1.204;2023-02-08T06:58:49;55.77;;;20.70;;
19406;SDS011;9839;53.364;-1.204;2023-02-08T07:01:18;54.70;;;20.73;;
19406;SDS011;9839;53.364;-1.204;2023-02-08T07:03:47;46.67;;;20.13;;
19406;SDS011;9839;53.364;-1.204;2023-02-08T07:06:13;48.97;;;19.73;;
19406;SDS011;9839;53.364;-1.204;2023-02-08T07:08:44;56.20;;;21.57;;
19406;SDS011;9839;53.364;-1.204;2023-02-08T07:11:12;46.87;;;20.30;;
19406;SDS011;9839;53.364;-1.204;2023-02-08T07:13:50;46.53;;;19.57;;
19406;SDS011;9839;53.364;-1.204;2023-02-08T07:16:18;55.93;;;20.27;;
19406;SDS011;9839;53.364;-1.204;2023-02-08T07:18:47;45.83;;;20.23;;
19406;SDS011;9839;53.364;-1.204;2023-02-08T07:21:16;53.43;;;20.83;;
19406;SDS011;9839;53.364;-1.204;2023-02-08T07:23:47;52.60;;;19.47;;
19406;SDS011;9839;53.364;-1.204;2023-02-08T07:26:13;44.47;;;20.27;;
19406;SDS011;9839;53.364;-1.204;2023-02-08T07:28:39;44.47;;;20.70;;
19406;SDS011;9839;53.364;-1.204;2023-02-08T07:31:06;44.67;;;18.37;;
19406;SDS011;9839;53.364;-1.204;2023-02-08T07:33:37;54.47;;;20.07;;
19406;SDS011;9839;53.364;-1.204;2023-02-08T07:36:03;44.50;;;19.57;;
19406;SDS011;9839;53.364;-1.204;2023-02-08T07:38:33;46.53;;;19.83;;
19406;SDS011;9839;53.364;-1.204;2023-02-08T07:41:03;49.23;;;18.73;;
19406;SDS011;9839;53.364;-1.204;2023-02-08T07:43:33;46.90;;;19.00;;
19406;SDS011;9839;53.364;-1.204;2023-02-08T07:46:07;53.27;;;19.50;;
19406;SDS011;9839;53.364;-1.204;2023-02-08T07:48:34;39.83;;;17.83;;
19406;SDS011;9839;53.364;-1.204;2023-02-08T07:51:00;40.73;;;16.33;;
19406;SDS011;9839;53.364;-1.204;2023-02-08T07:53:36;44.67;;;19.57;;
19406;SDS011;9839;53.364;-1.204;2023-02-08T07:56:05;47.20;;;19.10;;
19406;SDS011;9839;53.364;-1.204;2023-02-08T07:58:34;53.37;;;23.47;;
19406;SDS011;9839;53.364;-1.204;2023-02-08T08:01:03;55.03;;;21.47;;
19406;SDS011;9839;53.364;-1.204;2023-02-08T08:03:29;47.93;;;20.00;;
19406;SDS011;9839;53.364;-1.204;2023-02-08T08:05:58;48.13;;;17.80;;
19406;SDS011;9839;53.364;-1.204;2023-02-08T08:08:26;48.03;;;20.27;;
19406;SDS011;9839;53.364;-1.204;2023-02-08T08:10:57;45.83;;;18.80;;
19406;SDS011;9839;53.364;-1.204;2023-02-08T08:13:23;49.20;;;18.17;;
19406;SDS011;9839;53.364;-1.204;2023-02-08T08:15:49;46.93;;;18.93;;
19406;SDS011;9839;53.364;-1.204;2023-02-08T08:18:15;45.67;;;18.63;;
19406;SDS011;9839;53.364;-1.204;2023-02-08T08:20:41;50.57;;;20.93;;
19406;SDS011;9839;53.364;-1.204;2023-02-08T08:23:07;39.50;;;18.10;;
19406;SDS011;9839;53.364;-1.204;2023-02-08T08:25:36;50.33;;;18.77;;
19406;SDS011;9839;53.364;-1.204;2023-02-08T08:28:07;46.77;;;18.93;;
19406;SDS011;9839;53.364;-1.204;2023-02-08T08:30:33;47.53;;;20.57;;
19406;SDS011;9839;53.364;-1.204;2023-02-08T08:32:59;46.90;;;18.83;;
19406;SDS011;9839;53.364;-1.204;2023-02-08T08:35:27;45.20;;;19.40;;
19406;SDS011;9839;53.364;-1.204;2023-02-08T08:37:56;44.00;;;18.73;;
19406;SDS011;9839;53.364;-1.204;2023-02-08T08:40:21;43.07;;;18.57;;
19406;SDS011;9839;53.364;-1.204;2023-02-08T08:42:50;45.83;;;18.50;;
19406;SDS011;9839;53.364;-1.204;2023-02-08T08:45:18;43.80;;;17.23;;
19406;SDS011;9839;53.364;-1.204;2023-02-08T08:47:49;51.43;;;20.07;;
19406;SDS011;9839;53.364;-1.204;2023-02-08T08:50:25;45.90;;;19.27;;
19406;SDS011;9839;53.364;-1.204;2023-02-08T08:52:51;51.50;;;20.10;;
19406;SDS011;9839;53.364;-1.204;2023-02-08T08:55:19;43.40;;;19.53;;
19406;SDS011;9839;53.364;-1.204;2023-02-08T08:57:47;38.93;;;18.50;;
19406;SDS011;9839;53.364;-1.204;2023-02-08T09:00:13;44.17;;;19.13;;
19406;SDS011;9839;53.364;-1.204;2023-02-08T09:02:46;48.90;;;19.40;;
19406;SDS011;9839;53.364;-1.204;2023-02-08T09:05:17;43.33;;;19.10;;
19406;SDS011;9839;53.364;-1.204;2023-02-08T09:07:43;34.13;;;16.93;;
19406;SDS011;9839;53.364;-1.204;2023-02-08T09:10:09;44.80;;;17.80;;
19406;SDS011;9839;53.364;-1.204;2023-02-08T09:12:37;39.30;;;16.63;;
19406;SDS011;9839;53.364;-1.204;2023-02-08T09:15:03;46.00;;;18.17;;
19406;SDS011;9839;53.364;-1.204;2023-02-08T09:17:31;41.63;;;18.47;;
19406;SDS011;9839;53.364;-1.204;2023-02-08T09:19:59;46.70;;;17.80;;
19406;SDS011;9839;53.364;-1.204;2023-02-08T09:22:28;39.83;;;17.27;;
19406;SDS011;9839;53.364;-1.204;2023-02-08T09:24:57;44.33;;;17.27;;
19406;SDS011;9839;53.364;-1.204;2023-02-08T09:27:23;40.97;;;17.07;;
19406;SDS011;9839;53.364;-1.204;2023-02-08T09:29:49;42.83;;;16.17;;
19406;SDS011;9839;53.364;-1.204;2023-02-08T09:32:15;39.10;;;16.57;;
19406;SDS011;9839;53.364;-1.204;2023-02-08T09:34:50;31.20;;;15.20;;
19406;SDS011;9839;53.364;-1.204;2023-02-08T09:37:21;37.93;;;16.10;;
19406;SDS011;9839;53.364;-1.204;2023-02-08T09:39:52;35.13;;;15.53;;
19406;SDS011;9839;53.364;-1.204;2023-02-08T09:42:20;40.37;;;15.33;;
19406;SDS011;9839;53.364;-1.204;2023-02-08T09:45:23;38.23;;;15.07;;
19406;SDS011;9839;53.364;-1.204;2023-02-08T09:48:23;28.10;;;14.47;;
19406;SDS011;9839;53.364;-1.204;2023-02-08T09:51:07;32.40;;;15.40;;
19406;SDS011;9839;53.364;-1.204;2023-02-08T09:53:38;35.47;;;14.30;;
19406;SDS011;9839;53.364;-1.204;2023-02-08T09:56:15;35.27;;;13.50;;
19406;SDS011;9839;53.364;-1.204;2023-02-08T09:58:55;32.83;;;14.57;;
19406;SDS011;9839;53.364;-1.204;2023-02-08T10:01:25;37.43;;;13.47;;
19406;SDS011;9839;53.364;-1.204;2023-02-08T10:03:56;34.03;;;14.50;;
19406;SDS011;9839;53.364;-1.204;2023-02-08T10:06:44;32.33;;;13.63;;
19406;SDS011;9839;53.364;-1.204;2023-02-08T10:09:11;37.30;;;14.57;;
19406;SDS011;9839;53.364;-1.204;2023-02-08T10:11:42;28.10;;;12.10;;
19406;SDS011;9839;53.364;-1.204;2023-02-08T10:20:07;31.20;;;12.70;;
19406;SDS011;9839;53.364;-1.204;2023-02-08T10:34:48;36.27;;;13.73;;
19406;SDS011;9839;53.364;-1.204;2023-02-08T10:37:26;36.67;;;14.00;;
19406;SDS011;9839;53.364;-1.204;2023-02-08T10:39:59;26.10;;;12.90;;
19406;SDS011;9839;53.364;-1.204;2023-02-08T10:43:39;30.90;;;12.83;;
19406;SDS011;9839;53.364;-1.204;2023-02-08T10:45:41;30.30;;;12.17;;
19406;SDS011;9839;53.364;-1.204;2023-02-08T10:48:40;35.40;;;13.90;;
19406;SDS011;9839;53.364;-1.204;2023-02-08T10:51:15;33.83;;;14.60;;
19406;SDS011;9839;53.364;-1.204;2023-02-08T10:53:47;29.70;;;12.33;;
19406;SDS011;9839;53.364;-1.204;2023-02-08T10:56:26;31.87;;;14.07;;
19406;SDS011;9839;53.364;-1.204;2023-02-08T10:59:34;28.83;;;12.33;;
19406;SDS011;9839;53.364;-1.204;2023-02-08T11:02:52;27.97;;;13.03;;
19406;SDS011;9839;53.364;-1.204;2023-02-08T11:05:06;30.73;;;12.83;;
19406;SDS011;9839;53.364;-1.204;2023-02-08T11:07:36;33.20;;;13.83;;
19406;SDS011;9839;53.364;-1.204;2023-02-08T11:12:51;35.27;;;14.53;;
19406;SDS011;9839;53.364;-1.204;2023-02-08T11:15:38;33.80;;;14.60;;
19406;SDS011;9839;53.364;-1.204;2023-02-08T11:18:28;30.97;;;13.50;;
19406;SDS011;9839;53.364;-1.204;2023-02-08T11:21:07;30.43;;;13.67;;
19406;SDS011;9839;53.364;-1.204;2023-02-08T11:23:50;39.37;;;14.53;;
19406;SDS011;9839;53.364;-1.204;2023-02-08T11:32:03;31.67;;;14.40;;
19406;SDS011;9839;53.364;-1.204;2023-02-08T11:34:44;33.37;;;14.87;;
19406;SDS011;9839;53.364;-1.204;2023-02-08T11:37:20;35.53;;;13.57;;
19406;SDS011;9839;53.364;-1.204;2023-02-08T11:39:55;28.30;;;13.27;;
19406;SDS011;9839;53.364;-1.204;2023-02-08T11:42:36;35.50;;;13.57;;
19406;SDS011;9839;53.364;-1.204;2023-02-08T11:45:15;34.27;;;13.53;;
19406;SDS011;9839;53.364;-1.204;2023-02-08T11:47:47;29.17;;;13.17;;
19406;SDS011;9839;53.364;-1.204;2023-02-08T11:50:29;31.73;;;14.23;;
19406;SDS011;9839;53.364;-1.204;2023-02-08T11:53:01;33.67;;;13.47;;
19406;SDS011;9839;53.364;-1.204;2023-02-08T11:55:34;28.77;;;14.17;;
19406;SDS011;9839;53.364;-1.204;2023-02-08T11:58:03;28.87;;;12.67;;
19406;SDS011;9839;53.364;-1.204;2023-02-08T12:00:37;30.47;;;13.20;;
19406;SDS011;9839;53.364;-1.204;2023-02-08T12:03:13;28.10;;;13.27;;
19406;SDS011;9839;53.364;-1.204;2023-02-08T12:11:44;34.03;;;14.23;;
19406;SDS011;9839;53.364;-1.204;2023-02-08T12:22:41;30.83;;;13.70;;
19406;SDS011;9839;53.364;-1.204;2023-02-08T12:25:54;42.30;;;15.47;;
19406;SDS011;9839;53.364;-1.204;2023-02-08T12:36:53;26.27;;;12.77;;
19406;SDS011;9839;53.364;-1.204;2023-02-08T12:46:13;24.67;;;12.93;;
19406;SDS011;9839;53.364;-1.204;2023-02-08T12:54:10;37.80;;;12.87;;
19406;SDS011;9839;53.364;-1.204;2023-02-08T12:56:48;25.17;;;12.20;;
19406;SDS011;9839;53.364;-1.204;2023-02-08T12:59:20;24.40;;;11.87;;
19406;SDS011;9839;53.364;-1.204;2023-02-08T13:01:58;27.23;;;12.30;;
19406;SDS011;9839;53.364;-1.204;2023-02-08T13:04:40;34.43;;;12.53;;
19406;SDS011;9839;53.364;-1.204;2023-02-08T13:07:12;25.63;;;12.03;;
19406;SDS011;9839;53.364;-1.204;2023-02-08T13:12:54;22.20;;;11.83;;
19406;SDS011;9839;53.364;-1.204;2023-02-08T13:18:37;30.83;;;12.67;;
19406;SDS011;9839;53.364;-1.204;2023-02-08T13:21:18;25.80;;;11.37;;
19406;SDS011;9839;53.364;-1.204;2023-02-08T13:23:58;25.33;;;12.43;;
19406;SDS011;9839;53.364;-1.204;2023-02-08T13:26:29;22.37;;;11.93;;
19406;SDS011;9839;53.364;-1.204;2023-02-08T13:28:58;26.63;;;12.73;;
19406;SDS011;9839;53.364;-1.204;2023-02-08T13:31:38;31.13;;;12.93;;
19406;SDS011;9839;53.364;-1.204;2023-02-08T13:40:18;23.67;;;11.60;;
19406;SDS011;9839;53.364;-1.204;2023-02-08T13:42:51;24.97;;;11.27;;
19406;SDS011;9839;53.364;-1.204;2023-02-08T13:47:56;24.73;;;10.97;;
19406;SDS011;9839;53.364;-1.204;2023-02-08T13:56:10;27.30;;;11.63;;
19406;SDS011;9839;53.364;-1.204;2023-02-08T13:58:38;22.57;;;11.00;;
19406;SDS011;9839;53.364;-1.204;2023-02-08T14:01:25;26.23;;;11.00;;
19406;SDS011;9839;53.364;-1.204;2023-02-08T14:06:38;26.83;;;12.17;;
19406;SDS011;9839;53.364;-1.204;2023-02-08T14:11:50;29.10;;;10.70;;
19406;SDS011;9839;53.364;-1.204;2023-02-08T14:14:25;18.50;;;9.63;;
19406;SDS011;9839;53.364;-1.204;2023-02-08T14:19:36;22.83;;;9.33;;
19406;SDS011;9839;53.364;-1.204;2023-02-08T14:24:46;24.90;;;10.43;;
19406;SDS011;9839;53.364;-1.204;2023-02-08T14:27:27;25.17;;;10.83;;
19406;SDS011;9839;53.364;-1.204;2023-02-08T14:32:26;20.57;;;10.13;;
19406;SDS011;9839;53.364;-1.204;2023-02-08T14:35:15;23.27;;;9.30;;
19406;SDS011;9839;53.364;-1.204;2023-02-08T14:37:45;19.30;;;9.63;;
19406;SDS011;9839;53.364;-1.204;2023-02-08T14:45:32;22.53;;;10.03;;
19406;SDS011;9839;53.364;-1.204;2023-02-08T14:58:50;24.27;;;9.23;;
19406;SDS011;9839;53.364;-1.204;2023-02-08T15:01:51;24.10;;;8.97;;
19406;SDS011;9839;53.364;-1.204;2023-02-08T15:04:22;27.07;;;8.87;;
19406;SDS011;9839;53.364;-1.204;2023-02-08T15:10:00;20.03;;;9.80;;
19406;SDS011;9839;53.364;-1.204;2023-02-08T15:12:36;21.40;;;8.57;;
19406;SDS011;9839;53.364;-1.204;2023-02-08T15:15:04;27.20;;;9.20;;
19406;SDS011;9839;53.364;-1.204;2023-02-08T15:17:40;27.27;;;9.30;;
19406;SDS011;9839;53.364;-1.204;2023-02-08T15:20:30;20.83;;;9.60;;
19406;SDS011;9839;53.364;-1.204;2023-02-08T15:23:05;19.27;;;7.90;;
19406;SDS011;9839;53.364;-1.204;2023-02-08T15:25:59;19.77;;;8.03;;
19406;SDS011;9839;53.364;-1.204;2023-02-08T15:28:34;17.23;;;7.97;;
19406;SDS011;9839;53.364;-1.204;2023-02-08T15:33:30;20.27;;;7.33;;
19406;SDS011;9839;53.364;-1.204;2023-02-08T15:38:32;17.27;;;7.43;;
19406;SDS011;9839;53.364;-1.204;2023-02-08T15:41:06;14.90;;;7.10;;
19406;SDS011;9839;53.364;-1.204;2023-02-08T15:43:38;21.03;;;6.50;;
19406;SDS011;9839;53.364;-1.204;2023-02-08T15:46:26;11.73;;;6.50;;
19406;SDS011;9839;53.364;-1.204;2023-02-08T15:48:52;19.53;;;5.57;;
19406;SDS011;9839;53.364;-1.204;2023-02-08T15:51:18;15.30;;;5.70;;
19406;SDS011;9839;53.364;-1.204;2023-02-08T15:53:52;16.63;;;5.20;;
19406;SDS011;9839;53.364;-1.204;2023-02-08T15:56:30;18.63;;;4.97;;
19406;SDS011;9839;53.364;-1.204;2023-02-08T15:59:03;12.93;;;5.10;;
19406;SDS011;9839;53.364;-1.204;2023-02-08T16:01:31;13.87;;;5.00;;
19406;SDS011;9839;53.364;-1.204;2023-02-08T16:03:58;13.90;;;5.03;;
19406;SDS011;9839;53.364;-1.204;2023-02-08T16:06:33;20.23;;;5.23;;
19406;SDS011;9839;53.364;-1.204;2023-02-08T16:09:03;16.17;;;4.97;;
19406;SDS011;9839;53.364;-1.204;2023-02-08T16:11:30;14.47;;;5.30;;
19406;SDS011;9839;53.364;-1.204;2023-02-08T16:13:59;12.47;;;5.10;;
19406;SDS011;9839;53.364;-1.204;2023-02-08T16:19:19;12.10;;;4.63;;
19406;SDS011;9839;53.364;-1.204;2023-02-08T16:21:51;13.57;;;4.70;;
19406;SDS011;9839;53.364;-1.204;2023-02-08T16:24:22;14.00;;;4.57;;
19406;SDS011;9839;53.364;-1.204;2023-02-08T16:29:33;20.97;;;7.30;;
19406;SDS011;9839;53.364;-1.204;2023-02-08T16:34:36;21.77;;;7.33;;
19406;SDS011;9839;53.364;-1.204;2023-02-08T16:37:03;14.97;;;6.40;;
19406;SDS011;9839;53.364;-1.204;2023-02-08T16:42:21;20.23;;;5.60;;
19406;SDS011;9839;53.364;-1.204;2023-02-08T16:45:32;14.80;;;4.70;;
19406;SDS011;9839;53.364;-1.204;2023-02-08T16:47:37;14.67;;;4.50;;
19406;SDS011;9839;53.364;-1.204;2023-02-08T16:50:17;11.33;;;4.83;;
19406;SDS011;9839;53.364;-1.204;2023-02-08T16:52:46;14.43;;;5.57;;
19406;SDS011;9839;53.364;-1.204;2023-02-08T16:55:18;13.40;;;7.30;;
19406;SDS011;9839;53.364;-1.204;2023-02-08T16:57:48;17.20;;;6.03;;
19406;SDS011;9839;53.364;-1.204;2023-02-08T17:00:25;11.03;;;4.43;;
19406;SDS011;9839;53.364;-1.204;2023-02-08T17:02:56;15.20;;;5.10;;
19406;SDS011;9839;53.364;-1.204;2023-02-08T17:05:26;15.43;;;4.53;;
19406;SDS011;9839;53.364;-1.204;2023-02-08T17:07:57;12.67;;;3.83;;
19406;SDS011;9839;53.364;-1.204;2023-02-08T17:10:27;13.30;;;4.17;;
19406;SDS011;9839;53.364;-1.204;2023-02-08T17:12:57;8.80;;;3.30;;
19406;SDS011;9839;53.364;-1.204;2023-02-08T17:15:25;9.17;;;3.03;;
19406;SDS011;9839;53.364;-1.204;2023-02-08T17:17:51;14.23;;;3.23;;
19406;SDS011;9839;53.364;-1.204;2023-02-08T17:20:23;10.03;;;3.60;;
19406;SDS011;9839;53.364;-1.204;2023-02-08T17:22:57;9.10;;;3.53;;
19406;SDS011;9839;53.364;-1.204;2023-02-08T17:25:26;12.10;;;3.60;;
19406;SDS011;9839;53.364;-1.204;2023-02-08T17:27:57;6.10;;;3.03;;
19406;SDS011;9839;53.364;-1.204;2023-02-08T17:30:38;10.33;;;3.80;;